createdAt,value
2023-09-19T00:03:23.992Z,57.87
2023-09-19T00:08:25.674Z,57.42
2023-09-19T00:13:27.017Z,57.23
2023-09-19T00:18:33.433Z,57.10
2023-09-19T00:23:34.727Z,57.38
2023-09-19T00:28:36.439Z,57.15
2023-09-19T00:33:38.211Z,57.07
2023-09-19T00:38:39.651Z,56.91
2023-09-19T00:43:41.507Z,56.80
2023-09-19T00:48:45.272Z,56.31
2023-09-19T00:53:47.555Z,56.32
2023-09-19T00:58:49.116Z,56.20
2023-09-19T01:03:50.926Z,56.26
2023-09-19T01:08:52.327Z,56.14
2023-09-19T01:14:13.796Z,56.33
2023-09-19T01:19:33.964Z,56.29
2023-09-19T01:24:45.103Z,56.13
2023-09-19T01:29:47.261Z,56.29
2023-09-19T01:34:53.371Z,56.02
2023-09-19T01:39:55.708Z,56.46
2023-09-19T01:45:11.999Z,56.20
2023-09-19T01:50:19.438Z,56.48
2023-09-19T01:55:21.235Z,56.39
2023-09-19T02:00:22.817Z,56.53
2023-09-19T02:05:25.371Z,56.57
2023-09-19T02:10:26.667Z,56.30
2023-09-19T02:15:28.088Z,56.69
2023-09-19T02:20:29.655Z,56.46
2023-09-19T02:25:32.065Z,56.58
2023-09-19T02:30:33.595Z,56.57
2023-09-19T02:35:37.206Z,56.72
2023-09-19T02:40:38.623Z,56.42
2023-09-19T02:45:40.104Z,56.12
2023-09-19T02:50:41.576Z,55.67
2023-09-19T02:55:43.838Z,55.64
2023-09-19T03:00:47.942Z,55.58
2023-09-19T03:05:50.834Z,55.50
2023-09-19T03:10:53.920Z,55.12
2023-09-19T03:15:57.439Z,54.94
2023-09-19T03:21:00.896Z,54.60
2023-09-19T03:26:02.311Z,54.63
2023-09-19T03:31:04.464Z,54.69
2023-09-19T03:36:06.038Z,54.23
2023-09-19T03:41:07.435Z,53.88
2023-09-19T03:46:08.806Z,53.65
2023-09-19T03:51:10.189Z,53.58
2023-09-19T03:56:11.622Z,53.21
2023-09-19T04:01:14.706Z,52.97
2023-09-19T04:06:16.673Z,52.93
2023-09-19T04:11:17.999Z,53.19
2023-09-19T04:16:19.376Z,53.07
2023-09-19T04:21:20.764Z,52.68
2023-09-19T04:26:22.879Z,52.82
2023-09-19T04:31:24.263Z,52.64
2023-09-19T04:36:34.953Z,52.21
2023-09-19T04:41:39.801Z,52.66
2023-09-19T04:46:41.176Z,52.65
2023-09-19T04:51:43.436Z,52.68
2023-09-19T04:56:44.773Z,52.41
2023-09-19T05:01:46.165Z,52.59
2023-09-19T05:06:47.515Z,52.32
2023-09-19T05:11:49.313Z,52.21
2023-09-19T05:16:50.896Z,52.00
2023-09-19T05:21:52.364Z,51.91
2023-09-19T05:26:53.647Z,51.78
2023-09-19T05:31:55.846Z,52.07
2023-09-19T05:36:57.203Z,51.94
2023-09-19T05:41:58.940Z,51.61
2023-09-19T05:47:00.241Z,51.48
2023-09-19T05:52:02.236Z,51.65
2023-09-19T05:57:03.585Z,51.57
2023-09-19T06:02:06.595Z,51.46
2023-09-19T06:07:08.050Z,51.26
2023-09-19T06:12:09.391Z,51.16
2023-09-19T06:17:11.588Z,51.05
2023-09-19T06:22:12.988Z,50.83
2023-09-19T06:27:14.375Z,51.07
2023-09-19T06:32:15.785Z,50.59
2023-09-19T06:37:17.189Z,50.74
2023-09-19T06:42:21.157Z,50.72
2023-09-19T06:47:23.458Z,50.46
2023-09-19T06:52:24.782Z,50.51
2023-09-19T06:57:26.074Z,50.27
2023-09-19T07:02:27.438Z,50.05
2023-09-19T07:07:30.313Z,49.99
2023-09-19T07:12:31.635Z,49.97
2023-09-19T07:17:34.107Z,50.00
2023-09-19T07:22:35.938Z,49.73
2023-09-19T07:27:37.256Z,49.04
2023-09-19T07:32:39.196Z,48.14
2023-09-19T07:37:40.575Z,47.82
2023-09-19T07:42:42.020Z,47.40
2023-09-19T07:47:50.026Z,47.50
2023-09-19T07:52:54.290Z,47.03
2023-09-19T07:57:55.652Z,46.83
2023-09-19T08:02:58.678Z,46.37
2023-09-19T08:08:07.892Z,46.16
2023-09-19T08:13:14.396Z,45.73
2023-09-19T08:18:16.688Z,45.32
2023-09-19T08:23:21.123Z,45.10
2023-09-19T08:28:25.271Z,44.90
2023-09-19T08:33:26.597Z,44.28
2023-09-19T08:38:31.420Z,44.27
2023-09-19T08:43:34.994Z,44.32
2023-09-19T08:48:36.352Z,44.27
2023-09-19T08:53:56.226Z,44.02
2023-09-19T08:59:04.488Z,44.09
2023-09-19T09:04:05.954Z,43.89
2023-09-19T09:09:07.296Z,43.95
2023-09-19T09:14:08.927Z,43.86
2023-09-19T09:19:12.166Z,43.38
2023-09-19T09:24:30.165Z,42.86
2023-09-19T09:29:44.625Z,43.17
2023-09-19T09:34:46.049Z,42.96
2023-09-19T09:39:52.863Z,42.70
2023-09-19T09:45:13.461Z,42.94
2023-09-19T09:50:18.542Z,43.30
2023-09-19T09:55:21.431Z,43.16
2023-09-19T10:00:22.861Z,43.24
2023-09-19T10:05:30.056Z,43.04
2023-09-19T10:10:54.762Z,42.70
2023-09-19T10:15:57.560Z,43.12
2023-09-19T10:20:58.887Z,42.79
2023-09-19T10:26:02.623Z,43.05
2023-09-19T10:31:04.112Z,43.27
2023-09-19T10:36:05.842Z,42.81
2023-09-19T10:41:07.177Z,42.62
2023-09-19T10:46:08.962Z,42.86
2023-09-19T10:51:11.433Z,42.32
2023-09-19T10:56:18.396Z,42.29
2023-09-19T11:01:21.404Z,41.69
2023-09-19T11:06:23.764Z,41.50
2023-09-19T11:11:39.952Z,40.67
2023-09-19T11:16:41.286Z,39.98
2023-09-19T11:21:43.291Z,39.41
2023-09-19T11:26:48.378Z,39.45
2023-09-19T11:31:52.180Z,39.16
2023-09-19T11:36:55.146Z,38.15
2023-09-19T11:41:57.784Z,38.97
2023-09-19T11:47:00.083Z,38.10
2023-09-19T11:52:02.332Z,38.18
2023-09-19T11:57:03.883Z,38.10
2023-09-19T12:02:06.016Z,38.33
2023-09-19T12:07:11.662Z,38.56
2023-09-19T12:12:13.558Z,38.27
2023-09-19T12:17:14.994Z,38.57
2023-09-19T12:22:17.001Z,39.00
2023-09-19T12:27:18.485Z,39.30
2023-09-19T12:32:21.953Z,39.45
2023-09-19T12:37:23.657Z,39.34
2023-09-19T12:42:25.524Z,39.68
2023-09-19T12:47:26.872Z,39.33
2023-09-19T12:52:34.626Z,39.75
2023-09-19T12:57:35.967Z,39.57
2023-09-19T13:02:37.601Z,39.75
2023-09-19T13:07:45.204Z,39.46
2023-09-19T13:12:47.963Z,39.53
2023-09-19T13:17:49.590Z,39.58
2023-09-19T13:22:54.912Z,39.34
2023-09-19T13:27:57.008Z,39.15
2023-09-19T13:33:08.502Z,38.96
2023-09-19T13:38:13.643Z,38.74
2023-09-19T13:43:15.001Z,38.72
2023-09-19T13:48:16.330Z,38.38
2023-09-19T13:53:18.024Z,38.19
2023-09-19T13:58:19.421Z,37.78
2023-09-19T14:03:22.511Z,37.60
2023-09-19T14:08:24.623Z,37.85
2023-09-19T14:13:26.654Z,37.85
2023-09-19T14:18:28.044Z,37.88
2023-09-19T14:23:29.379Z,37.93
2023-09-19T14:28:30.915Z,38.09
2023-09-19T14:33:32.532Z,38.00
2023-09-19T14:38:34.581Z,37.57
2023-09-19T14:43:35.934Z,37.47
2023-09-19T14:48:37.453Z,37.03
2023-09-19T14:53:39.049Z,36.99
2023-09-19T14:58:41.303Z,36.66
2023-09-19T15:03:43.449Z,36.50
2023-09-19T15:08:48.324Z,36.28
2023-09-19T15:13:52.792Z,35.98
2023-09-19T15:18:56.240Z,35.88
2023-09-19T15:23:58.135Z,36.21
2023-09-19T15:28:59.588Z,36.10
2023-09-19T15:34:02.277Z,35.92
2023-09-19T15:39:08.362Z,35.91
2023-09-19T15:44:13.159Z,35.33
2023-09-19T15:49:14.825Z,35.44
2023-09-19T15:54:16.313Z,35.70
2023-09-19T15:59:17.652Z,35.34
2023-09-19T16:04:19.035Z,35.62
2023-09-19T16:09:20.321Z,35.63
2023-09-19T16:14:21.696Z,35.19
2023-09-19T16:19:23.048Z,35.13
2023-09-19T16:24:24.995Z,34.67
2023-09-19T16:29:26.332Z,34.80
2023-09-19T16:34:27.741Z,34.37
2023-09-19T16:39:29.059Z,34.69
2023-09-19T16:44:30.776Z,34.39
2023-09-19T16:49:32.119Z,33.86
2023-09-19T16:54:33.416Z,33.94
2023-09-19T16:59:34.759Z,33.39
2023-09-19T17:04:36.100Z,33.28
2023-09-19T17:09:37.409Z,32.84
2023-09-19T17:14:39.323Z,32.42
2023-09-19T17:19:40.686Z,32.31
2023-09-19T17:24:42.081Z,32.76
2023-09-19T17:29:43.370Z,32.01
2023-09-19T17:34:47.274Z,32.08
2023-09-19T17:39:48.620Z,31.83
2023-09-19T17:44:50.237Z,32.01
2023-09-19T17:49:51.595Z,32.07
2023-09-19T17:54:52.952Z,32.08
2023-09-19T17:59:55.154Z,32.25
2023-09-19T18:04:57.527Z,32.35
2023-09-19T18:10:02.445Z,32.65
2023-09-19T18:15:03.929Z,32.78
2023-09-19T18:20:11.043Z,32.92
2023-09-19T18:25:14.228Z,33.14
2023-09-19T18:30:16.029Z,33.44
2023-09-19T18:35:17.489Z,33.70
2023-09-19T18:40:18.791Z,34.25
2023-09-19T18:45:34.756Z,34.81
2023-09-19T18:50:42.090Z,34.65
2023-09-19T18:55:43.497Z,34.89
2023-09-19T19:00:45.053Z,35.00
2023-09-19T19:05:47.375Z,35.42
2023-09-19T19:10:48.734Z,35.52
2023-09-19T19:15:50.040Z,35.79
2023-09-19T19:20:57.661Z,35.85
2023-09-19T19:26:00.923Z,36.25
2023-09-19T19:31:03.909Z,36.53
2023-09-19T19:36:08.927Z,36.74
2023-09-19T19:41:10.317Z,36.88
2023-09-19T19:46:11.673Z,36.92
2023-09-19T19:51:14.419Z,37.22
2023-09-19T19:56:15.788Z,37.34
2023-09-19T20:01:17.243Z,37.48
2023-09-19T20:06:23.214Z,37.74
2023-09-19T20:11:29.864Z,37.82
2023-09-19T20:16:33.057Z,38.02
2023-09-19T20:21:35.847Z,38.44
2023-09-19T20:26:38.489Z,38.41
2023-09-19T20:31:40.000Z,38.40
2023-09-19T20:36:41.979Z,38.55
2023-09-19T20:41:43.459Z,38.49
2023-09-19T20:46:47.298Z,38.63
2023-09-19T20:51:48.706Z,38.62
2023-09-19T20:56:51.439Z,38.84
2023-09-19T21:01:53.142Z,38.84
2023-09-19T21:06:55.045Z,38.75
2023-09-19T21:11:56.383Z,38.61
2023-09-19T21:16:57.792Z,38.63
2023-09-19T21:21:59.154Z,38.63
2023-09-19T21:27:05.548Z,38.86
2023-09-19T21:32:09.404Z,39.08
2023-09-19T21:37:14.846Z,39.35
2023-09-19T21:42:16.152Z,39.71
2023-09-19T21:47:17.502Z,39.76
2023-09-19T21:52:18.860Z,39.89
2023-09-19T21:57:20.207Z,39.72
2023-09-19T22:02:21.849Z,39.78
2023-09-19T22:07:23.696Z,39.83
2023-09-19T22:12:26.390Z,40.01
2023-09-19T22:17:27.836Z,40.04
2023-09-19T22:22:30.627Z,40.04
2023-09-19T22:27:31.958Z,40.17
2023-09-19T22:32:35.116Z,40.24
2023-09-19T22:37:38.053Z,40.32
2023-09-19T22:42:41.898Z,40.17
2023-09-19T22:47:44.990Z,40.28
2023-09-19T22:52:51.343Z,40.26
2023-09-19T22:57:55.762Z,40.17
2023-09-19T23:02:57.310Z,40.08
2023-09-19T23:08:00.490Z,40.38
2023-09-19T23:13:01.781Z,40.48
2023-09-19T23:18:03.152Z,40.73
2023-09-19T23:23:05.478Z,40.58
2023-09-19T23:28:07.352Z,40.70
2023-09-19T23:33:08.777Z,40.79
2023-09-19T23:38:10.115Z,40.57
2023-09-19T23:43:11.670Z,40.64
2023-09-19T23:48:13.133Z,40.99
2023-09-19T23:53:15.361Z,40.95
2023-09-19T23:58:16.710Z,40.90
